createdAt,value
2019-01-20T00:00:25.948Z,0.00
2019-01-20T00:01:26.589Z,0.00
2019-01-20T00:02:27.215Z,0.00
2019-01-20T00:03:27.851Z,0.00
2019-01-20T00:04:28.489Z,0.00
2019-01-20T00:05:29.121Z,0.00
2019-01-20T00:06:29.750Z,0.00
2019-01-20T00:07:30.390Z,0.00
2019-01-20T00:08:31.019Z,0.00
2019-01-20T00:09:31.660Z,0.00
2019-01-20T00:10:33.348Z,0.00
2019-01-20T00:11:33.930Z,0.00
2019-01-20T00:12:34.564Z,0.00
2019-01-20T00:13:35.192Z,0.00
2019-01-20T00:14:35.827Z,0.00
2019-01-20T00:15:36.451Z,0.00
2019-01-20T00:16:37.087Z,0.00
2019-01-20T00:17:37.717Z,0.00
2019-01-20T00:18:38.351Z,0.00
2019-01-20T00:19:38.989Z,0.00
2019-01-20T00:20:39.624Z,0.00
2019-01-20T00:21:40.254Z,0.00
2019-01-20T00:22:40.891Z,0.00
2019-01-20T00:23:41.517Z,0.00
2019-01-20T00:24:42.162Z,0.00
2019-01-20T00:25:42.796Z,0.00
2019-01-20T00:26:43.421Z,0.00
2019-01-20T00:27:44.068Z,0.00
2019-01-20T00:28:44.701Z,0.00
2019-01-20T00:29:45.334Z,0.00
2019-01-20T00:30:45.968Z,0.00
2019-01-20T00:31:46.599Z,0.00
2019-01-20T00:32:47.230Z,0.00
2019-01-20T00:33:47.861Z,0.00
2019-01-20T00:34:48.496Z,0.00
2019-01-20T00:35:49.136Z,0.00
2019-01-20T00:36:49.768Z,0.00
2019-01-20T00:37:50.404Z,0.00
2019-01-20T00:38:51.038Z,0.00
2019-01-20T00:39:51.665Z,0.00
2019-01-20T00:40:52.315Z,0.00
2019-01-20T00:41:52.938Z,0.00
2019-01-20T00:42:53.568Z,0.00
2019-01-20T00:43:54.204Z,0.00
2019-01-20T00:45:02.362Z,0.00
2019-01-20T00:45:56.477Z,0.00
2019-01-20T00:46:57.111Z,0.00
2019-01-20T00:47:57.752Z,0.00
2019-01-20T00:48:58.385Z,0.00
2019-01-20T00:49:59.000Z,0.00
2019-01-20T00:50:59.642Z,0.00
2019-01-20T00:52:00.274Z,0.00
2019-01-20T00:53:00.910Z,0.00
2019-01-20T00:54:01.639Z,0.00
2019-01-20T00:55:02.314Z,0.00
2019-01-20T00:56:02.889Z,0.00
2019-01-20T00:57:03.525Z,0.00
2019-01-20T00:58:04.183Z,0.00
2019-01-20T00:59:05.185Z,0.00
2019-01-20T01:00:05.819Z,0.00
2019-01-20T01:01:06.441Z,0.00
2019-01-20T01:02:07.079Z,0.00
2019-01-20T01:03:07.710Z,0.00
2019-01-20T01:04:08.338Z,0.00
2019-01-20T01:05:08.985Z,0.00
2019-01-20T01:06:09.615Z,0.00
2019-01-20T01:07:10.264Z,0.00
2019-01-20T01:08:10.888Z,0.00
2019-01-20T01:09:11.525Z,0.00
2019-01-20T01:10:12.152Z,0.00
2019-01-20T01:11:12.795Z,0.00
2019-01-20T01:12:13.429Z,0.00
2019-01-20T01:13:14.076Z,0.00
2019-01-20T01:14:14.713Z,0.00
2019-01-20T01:15:15.345Z,0.00
2019-01-20T01:16:15.980Z,0.00
2019-01-20T01:17:16.612Z,0.00
2019-01-20T01:18:17.240Z,0.00
2019-01-20T01:19:17.888Z,0.00
2019-01-20T01:20:18.525Z,0.00
2019-01-20T01:21:19.163Z,0.00
2019-01-20T01:22:19.786Z,0.00
2019-01-20T01:23:20.422Z,0.00
2019-01-20T01:24:21.051Z,0.00
2019-01-20T01:25:21.678Z,0.00
2019-01-20T01:26:22.313Z,0.00
2019-01-20T01:27:22.949Z,0.00
2019-01-20T01:28:23.580Z,0.00
2019-01-20T01:29:24.232Z,0.00
2019-01-20T01:30:24.847Z,0.00
2019-01-20T01:31:25.483Z,0.00
2019-01-20T01:32:26.115Z,0.00
2019-01-20T01:33:26.757Z,0.00
2019-01-20T01:34:27.415Z,0.00
2019-01-20T01:35:28.012Z,0.00
2019-01-20T01:36:28.668Z,0.00
2019-01-20T01:37:29.301Z,0.00
2019-01-20T01:38:29.932Z,0.00
2019-01-20T01:39:30.568Z,0.00
2019-01-20T01:40:31.199Z,0.00
2019-01-20T01:41:38.848Z,0.00
2019-01-20T01:42:32.456Z,0.00
2019-01-20T01:43:33.133Z,0.00
2019-01-20T01:44:33.745Z,0.00
2019-01-20T01:45:34.499Z,0.00
2019-01-20T01:46:35.127Z,0.00
2019-01-20T01:47:35.767Z,0.00
2019-01-20T01:48:36.392Z,0.00
2019-01-20T01:49:37.017Z,0.00
2019-01-20T01:50:37.660Z,0.00
2019-01-20T01:51:38.303Z,0.00
2019-01-20T01:52:38.936Z,0.00
2019-01-20T01:53:39.567Z,0.00
2019-01-20T01:54:40.217Z,0.00
2019-01-20T01:55:41.122Z,0.00
2019-01-20T01:56:41.471Z,0.00
2019-01-20T01:57:42.110Z,0.00
2019-01-20T01:58:42.752Z,0.00
2019-01-20T01:59:43.399Z,0.00
2019-01-20T02:00:44.027Z,0.00
2019-01-20T02:01:44.672Z,0.00
2019-01-20T02:02:46.301Z,0.00
2019-01-20T02:03:46.935Z,0.00
2019-01-20T02:04:47.571Z,0.00
2019-01-20T02:05:48.203Z,0.00
2019-01-20T02:06:48.839Z,0.00
2019-01-20T02:07:49.469Z,0.00
2019-01-20T02:08:50.128Z,0.00
2019-01-20T02:09:50.745Z,0.00
2019-01-20T02:10:51.378Z,0.00
2019-01-20T02:11:52.007Z,0.00
2019-01-20T02:12:52.635Z,0.00
2019-01-20T02:13:53.284Z,0.00
2019-01-20T02:14:53.904Z,0.00
2019-01-20T02:15:55.540Z,0.00
2019-01-20T02:16:56.167Z,0.00
2019-01-20T02:17:56.808Z,0.00
2019-01-20T02:18:57.445Z,0.00
2019-01-20T02:19:58.176Z,0.00
2019-01-20T02:20:58.812Z,0.00
2019-01-20T02:21:59.444Z,0.00
2019-01-20T02:23:00.072Z,0.00
2019-01-20T02:24:00.758Z,0.00
2019-01-20T02:25:01.343Z,0.00
2019-01-20T02:26:02.042Z,0.00
2019-01-20T02:27:02.646Z,0.00
2019-01-20T02:28:03.288Z,0.00
2019-01-20T02:29:03.916Z,0.00
2019-01-20T02:30:04.552Z,0.00
2019-01-20T02:31:05.193Z,0.00
2019-01-20T02:32:05.892Z,0.00
2019-01-20T02:33:06.498Z,0.00
2019-01-20T02:34:07.168Z,0.00
2019-01-20T02:35:07.776Z,0.00
2019-01-20T02:36:08.495Z,0.00
2019-01-20T02:37:09.119Z,0.00
2019-01-20T02:38:09.766Z,0.00
2019-01-20T02:39:10.400Z,0.00
2019-01-20T02:40:11.028Z,0.00
2019-01-20T02:41:11.670Z,0.00
2019-01-20T02:42:12.313Z,0.00
2019-01-20T02:43:12.945Z,0.00
2019-01-20T02:44:13.581Z,0.00
2019-01-20T02:45:14.215Z,0.00
2019-01-20T02:46:14.847Z,0.00
2019-01-20T02:47:15.478Z,0.00
2019-01-20T02:48:17.122Z,0.00
2019-01-20T02:49:17.782Z,0.00
2019-01-20T02:50:18.665Z,0.00
2019-01-20T02:51:19.023Z,0.00
2019-01-20T02:52:19.643Z,0.00
2019-01-20T02:53:20.279Z,0.00
2019-01-20T02:54:20.912Z,0.00
2019-01-20T02:55:21.552Z,0.00
2019-01-20T02:56:22.192Z,0.00
2019-01-20T02:57:22.822Z,0.00
2019-01-20T02:58:23.458Z,0.00
2019-01-20T02:59:24.090Z,0.00
2019-01-20T03:00:24.722Z,0.00
2019-01-20T03:01:25.351Z,0.00
2019-01-20T03:02:25.987Z,0.00
2019-01-20T03:03:26.620Z,0.00
2019-01-20T03:04:27.264Z,0.00
2019-01-20T03:05:27.901Z,0.00
2019-01-20T03:06:28.539Z,0.00
2019-01-20T03:07:29.169Z,0.00
2019-01-20T03:08:29.802Z,0.00
2019-01-20T03:09:30.501Z,0.00
2019-01-20T03:10:31.053Z,0.00
2019-01-20T03:11:31.690Z,0.00
2019-01-20T03:12:32.322Z,0.00
2019-01-20T03:13:32.949Z,0.00
2019-01-20T03:14:33.590Z,0.00
2019-01-20T03:15:34.210Z,0.00
2019-01-20T03:16:34.853Z,0.00
2019-01-20T03:17:35.485Z,0.00
2019-01-20T03:18:36.119Z,0.00
2019-01-20T03:19:36.753Z,0.00
2019-01-20T03:20:37.381Z,0.00
2019-01-20T03:21:38.022Z,0.00
2019-01-20T03:22:38.650Z,0.00
2019-01-20T03:23:39.290Z,0.00
2019-01-20T03:24:39.920Z,0.00
2019-01-20T03:25:40.553Z,0.00
2019-01-20T03:26:41.190Z,0.00
2019-01-20T03:27:41.830Z,0.00
2019-01-20T03:28:42.447Z,0.00
2019-01-20T03:29:43.084Z,0.00
2019-01-20T03:30:43.718Z,0.00
2019-01-20T03:31:44.353Z,0.00
2019-01-20T03:32:44.994Z,0.00
2019-01-20T03:33:45.725Z,0.00
2019-01-20T03:34:46.363Z,0.00
2019-01-20T03:35:46.995Z,0.00
2019-01-20T03:36:47.634Z,0.00
2019-01-20T03:37:48.264Z,0.00
2019-01-20T03:38:48.899Z,0.00
2019-01-20T03:39:49.532Z,0.00
2019-01-20T03:40:50.166Z,0.00
2019-01-20T03:41:50.797Z,0.00
2019-01-20T03:42:51.444Z,0.00
2019-01-20T03:43:52.073Z,0.00
2019-01-20T03:44:53.705Z,0.00
2019-01-20T03:45:54.346Z,0.00
2019-01-20T03:46:54.975Z,0.00
2019-01-20T03:47:55.607Z,0.00
2019-01-20T03:48:56.247Z,0.00
2019-01-20T03:49:56.884Z,0.00
2019-01-20T03:50:57.521Z,0.00
2019-01-20T03:51:58.144Z,0.00
2019-01-20T03:52:58.793Z,0.00
2019-01-20T03:53:59.425Z,0.00
2019-01-20T03:55:00.093Z,0.00
2019-01-20T03:56:00.695Z,0.00
2019-01-20T03:57:01.336Z,0.00
2019-01-20T03:58:01.958Z,0.00
2019-01-20T03:59:02.596Z,0.00
2019-01-20T04:00:03.236Z,0.00
2019-01-20T04:01:03.868Z,0.00
2019-01-20T04:02:04.502Z,0.00
2019-01-20T04:03:05.146Z,0.00
2019-01-20T04:04:05.785Z,0.00
2019-01-20T04:05:06.408Z,0.00
2019-01-20T04:06:07.044Z,0.00
2019-01-20T04:07:07.669Z,0.00
2019-01-20T04:08:08.319Z,0.00
2019-01-20T04:09:08.944Z,0.00
2019-01-20T04:10:09.574Z,0.00
2019-01-20T04:11:10.211Z,0.00
2019-01-20T04:12:10.845Z,0.00
2019-01-20T04:13:11.568Z,0.00
2019-01-20T04:14:12.099Z,0.00
2019-01-20T04:15:12.745Z,0.00
2019-01-20T04:16:13.365Z,0.00
2019-01-20T04:17:14.005Z,0.00
2019-01-20T04:18:14.630Z,0.00
2019-01-20T04:19:15.261Z,0.00
2019-01-20T04:20:15.893Z,0.00
2019-01-20T04:21:16.522Z,0.00
2019-01-20T04:53:29.079Z,0.00
2019-01-20T04:54:29.686Z,0.00
2019-01-20T04:57:23.786Z,0.00
2019-01-20T04:58:24.435Z,0.00
2019-01-20T05:01:18.662Z,0.00
2019-01-20T05:02:19.295Z,0.00
2019-01-20T05:05:13.822Z,0.00
2019-01-20T05:06:14.425Z,0.00
2019-01-20T05:09:08.634Z,0.00
2019-01-20T05:10:09.289Z,0.00
2019-01-20T05:13:03.374Z,0.00
2019-01-20T05:14:04.020Z,0.00
2019-01-20T05:16:58.178Z,0.00
2019-01-20T05:17:58.806Z,0.00
2019-01-20T05:18:59.435Z,0.00
2019-01-20T05:20:00.274Z,0.00
2019-01-20T05:21:00.699Z,0.00
2019-01-20T05:22:01.410Z,0.00
2019-01-20T05:23:01.982Z,0.00
2019-01-20T05:24:02.623Z,0.00
2019-01-20T05:25:03.247Z,0.00
2019-01-20T05:26:03.872Z,0.00
2019-01-20T05:27:04.506Z,0.00
2019-01-20T05:28:05.140Z,0.00
2019-01-20T05:29:05.774Z,0.00
2019-01-20T05:30:06.411Z,0.00
2019-01-20T05:31:07.049Z,0.00
2019-01-20T05:32:07.691Z,0.00
2019-01-20T05:33:08.317Z,0.00
2019-01-20T05:34:08.948Z,0.00
2019-01-20T05:35:09.594Z,0.00
2019-01-20T05:36:10.212Z,0.00
2019-01-20T05:37:10.844Z,0.00
2019-01-20T05:38:11.474Z,0.00
2019-01-20T05:39:12.121Z,0.00
2019-01-20T05:40:12.762Z,0.00
2019-01-20T05:41:13.393Z,0.00
2019-01-20T05:42:14.023Z,0.00
2019-01-20T05:43:14.659Z,0.00
2019-01-20T05:44:15.292Z,0.00
2019-01-20T05:45:15.927Z,0.00
2019-01-20T05:46:16.564Z,0.00
2019-01-20T05:47:17.199Z,0.00
2019-01-20T05:48:17.830Z,0.00
2019-01-20T05:49:18.470Z,0.00
2019-01-20T05:50:19.105Z,0.00
2019-01-20T05:51:19.743Z,0.00
2019-01-20T05:52:20.359Z,0.00
2019-01-20T05:53:20.987Z,0.00
2019-01-20T05:54:21.626Z,0.00
2019-01-20T05:55:22.266Z,0.00
2019-01-20T05:56:22.891Z,0.00
2019-01-20T05:57:23.531Z,0.00
2019-01-20T05:58:24.178Z,0.00
2019-01-20T05:59:24.807Z,0.00
2019-01-20T06:00:25.441Z,0.00
2019-01-20T06:01:27.318Z,0.00
2019-01-20T06:02:26.696Z,0.00
2019-01-20T06:03:27.338Z,0.00
2019-01-20T06:04:27.967Z,0.00
2019-01-20T06:05:28.605Z,0.00
2019-01-20T06:06:29.235Z,0.00
2019-01-20T06:07:29.866Z,0.00
2019-01-20T06:08:30.495Z,0.00
2019-01-20T06:09:31.126Z,0.00
2019-01-20T06:10:31.759Z,0.00
2019-01-20T06:11:32.395Z,0.00
2019-01-20T06:12:33.025Z,0.00
2019-01-20T06:13:33.662Z,0.00
2019-01-20T06:14:34.298Z,0.00
2019-01-20T06:15:34.933Z,0.00
2019-01-20T06:16:35.562Z,0.00
2019-01-20T06:17:36.194Z,0.00
2019-01-20T06:18:36.823Z,0.00
2019-01-20T06:19:37.461Z,0.00
2019-01-20T06:20:38.093Z,0.00
2019-01-20T06:21:38.726Z,0.00
2019-01-20T06:22:39.358Z,0.00
2019-01-20T06:23:40.001Z,0.00
2019-01-20T06:24:40.624Z,0.00
2019-01-20T06:25:41.265Z,0.00
2019-01-20T06:26:41.889Z,0.00
2019-01-20T06:27:42.523Z,0.00
2019-01-20T06:28:43.147Z,0.00
2019-01-20T06:29:43.788Z,0.00
2019-01-20T06:30:44.423Z,0.00
2019-01-20T06:31:45.051Z,0.00
2019-01-20T06:32:45.689Z,0.00
2019-01-20T06:33:46.322Z,0.00
2019-01-20T06:34:46.952Z,0.00
2019-01-20T06:35:47.594Z,0.00
2019-01-20T06:36:50.070Z,0.00
2019-01-20T06:37:50.712Z,0.00
2019-01-20T06:38:51.343Z,0.00
2019-01-20T06:39:51.979Z,0.00
2019-01-20T06:40:52.616Z,0.00
2019-01-20T06:41:53.241Z,0.00
2019-01-20T06:43:01.231Z,0.00
2019-01-20T06:43:54.514Z,0.00
2019-01-20T06:44:55.191Z,0.00
2019-01-20T06:45:55.814Z,0.00
2019-01-20T06:46:56.442Z,0.00
2019-01-20T06:47:57.067Z,0.00
2019-01-20T06:48:57.707Z,0.00
2019-01-20T06:49:58.339Z,0.00
2019-01-20T06:50:58.986Z,0.00
2019-01-20T06:51:59.621Z,0.00
2019-01-20T06:53:00.265Z,0.00
2019-01-20T06:54:00.884Z,0.00
2019-01-20T06:55:01.518Z,0.00
2019-01-20T06:56:02.172Z,0.00
2019-01-20T06:57:02.792Z,0.00
2019-01-20T06:58:03.511Z,0.00
2019-01-20T06:59:04.163Z,0.00
2019-01-20T07:00:04.856Z,4.00
2019-01-20T07:01:05.500Z,0.00
2019-01-20T07:02:06.198Z,0.00
2019-01-20T07:03:06.828Z,4.00
2019-01-20T07:04:07.542Z,4.00
2019-01-20T07:05:08.173Z,0.00
2019-01-20T07:06:08.888Z,4.00
2019-01-20T07:07:09.524Z,4.00
2019-01-20T07:08:10.230Z,4.00
2019-01-20T07:09:10.857Z,8.00
2019-01-20T07:10:11.601Z,4.00
2019-01-20T07:11:12.230Z,8.00
2019-01-20T07:12:12.928Z,8.00
2019-01-20T07:13:13.548Z,8.00
2019-01-20T07:14:14.278Z,12.00
2019-01-20T07:15:14.908Z,12.00
2019-01-20T07:16:15.543Z,12.00
2019-01-20T07:17:16.170Z,12.00
2019-01-20T07:18:16.861Z,12.00
2019-01-20T07:19:17.491Z,16.00
2019-01-20T07:20:18.197Z,20.00
2019-01-20T07:21:18.834Z,24.00
2019-01-20T07:22:19.540Z,24.00
2019-01-20T07:23:20.187Z,28.00
2019-01-20T07:24:20.888Z,28.00
2019-01-20T07:25:21.521Z,28.00
2019-01-20T07:26:22.236Z,32.00
2019-01-20T07:27:22.856Z,36.00
2019-01-20T07:28:23.577Z,40.00
2019-01-20T07:29:24.741Z,40.00
2019-01-20T07:30:24.924Z,48.00
2019-01-20T07:31:25.565Z,48.00
2019-01-20T07:32:26.200Z,52.00
2019-01-20T07:33:26.835Z,56.00
2019-01-20T07:34:27.632Z,60.00
2019-01-20T07:35:28.143Z,64.00
2019-01-20T07:36:28.856Z,68.00
2019-01-20T07:37:29.484Z,72.00
2019-01-20T07:38:30.220Z,80.00
2019-01-20T07:39:30.875Z,84.00
2019-01-20T07:40:31.545Z,88.00
2019-01-20T07:41:32.175Z,96.00
2019-01-20T07:42:32.889Z,104.00
2019-01-20T07:43:33.514Z,112.00
2019-01-20T07:44:34.235Z,116.00
2019-01-20T07:45:34.868Z,124.00
2019-01-20T07:46:35.479Z,136.00
2019-01-20T07:47:36.062Z,144.00
2019-01-20T07:48:36.627Z,156.00
2019-01-20T07:49:37.210Z,164.00
2019-01-20T07:50:37.854Z,172.00
2019-01-20T07:51:38.441Z,184.00
2019-01-20T07:52:39.099Z,192.00
2019-01-20T07:53:39.667Z,200.00
2019-01-20T07:54:40.345Z,208.00
2019-01-20T07:55:40.918Z,216.00
2019-01-20T07:56:41.492Z,224.00
2019-01-20T07:57:42.067Z,232.00
2019-01-20T07:58:42.741Z,244.00
2019-01-20T07:59:43.297Z,252.00
2019-01-20T08:00:43.985Z,260.00
2019-01-20T08:01:44.549Z,268.00
2019-01-20T08:02:45.211Z,276.00
2019-01-20T08:03:45.779Z,288.00
2019-01-20T08:04:46.364Z,300.00
2019-01-20T08:05:46.938Z,308.00
2019-01-20T08:06:47.519Z,316.00
2019-01-20T08:07:48.092Z,328.00
2019-01-20T08:08:48.744Z,336.00
2019-01-20T08:09:49.315Z,348.00
2019-01-20T08:10:49.975Z,360.00
2019-01-20T08:11:50.555Z,368.00
2019-01-20T08:12:51.129Z,376.00
2019-01-20T08:13:51.711Z,384.00
2019-01-20T08:14:52.287Z,396.00
2019-01-20T08:15:52.871Z,404.00
2019-01-20T08:16:53.443Z,412.00
2019-01-20T08:17:54.037Z,424.00
2019-01-20T08:18:54.594Z,428.00
2019-01-20T08:19:57.066Z,440.00
2019-01-20T08:20:57.651Z,448.00
2019-01-20T08:21:58.234Z,460.00
2019-01-20T08:22:58.830Z,468.00
2019-01-20T08:23:59.390Z,472.00
2019-01-20T08:24:59.971Z,480.00
2019-01-20T08:26:00.543Z,492.00
2019-01-20T08:27:01.122Z,500.00
2019-01-20T08:28:01.706Z,504.00
2019-01-20T08:29:02.294Z,508.00
2019-01-20T08:30:02.861Z,516.00
2019-01-20T08:31:03.442Z,524.00
2019-01-20T08:32:04.141Z,528.00
2019-01-20T08:33:04.717Z,536.00
2019-01-20T08:34:05.293Z,540.00
2019-01-20T08:35:05.901Z,544.00
2019-01-20T08:36:06.485Z,552.00
2019-01-20T08:37:07.141Z,556.00
2019-01-20T08:38:07.724Z,560.00
2019-01-20T08:39:08.383Z,568.00
2019-01-20T08:40:08.964Z,568.00
2019-01-20T08:41:09.654Z,576.00
2019-01-20T08:42:10.205Z,576.00
2019-01-20T08:43:10.870Z,584.00
2019-01-20T08:44:11.445Z,588.00
2019-01-20T08:45:12.115Z,588.00
2019-01-20T08:46:12.716Z,596.00
2019-01-20T08:47:14.424Z,596.00
2019-01-20T08:48:14.963Z,604.00
2019-01-20T08:49:15.537Z,608.00
2019-01-20T08:50:16.137Z,608.00
2019-01-20T08:51:16.727Z,608.00
2019-01-20T08:52:17.427Z,612.00
2019-01-20T08:53:17.968Z,616.00
2019-01-20T08:54:18.626Z,620.00
2019-01-20T08:55:19.213Z,624.00
2019-01-20T08:56:19.868Z,628.00
2019-01-20T08:57:20.448Z,632.00
2019-01-20T08:58:21.119Z,632.00
2019-01-20T08:59:21.692Z,636.00
2019-01-20T09:00:22.350Z,640.00
2019-01-20T09:01:22.929Z,644.00
2019-01-20T09:02:23.595Z,648.00
2019-01-20T09:03:24.173Z,652.00
2019-01-20T09:04:45.806Z,656.00
2019-01-20T09:05:46.392Z,668.00
2019-01-20T09:06:54.627Z,672.00
2019-01-20T09:07:55.210Z,680.00
2019-01-20T09:09:23.618Z,680.00
2019-01-20T09:10:24.202Z,676.00
2019-01-20T09:11:26.810Z,684.00
2019-01-20T09:12:27.388Z,688.00
2019-01-20T09:13:27.963Z,696.00
2019-01-20T09:14:28.549Z,704.00
2019-01-20T09:15:29.190Z,712.00
2019-01-20T09:16:29.770Z,720.00
2019-01-20T09:17:30.433Z,720.00
2019-01-20T09:18:31.015Z,724.00
2019-01-20T09:19:31.677Z,728.00
2019-01-20T09:20:32.256Z,732.00
2019-01-20T09:21:32.924Z,736.00
2019-01-20T09:22:33.501Z,744.00
2019-01-20T09:23:35.201Z,748.00
2019-01-20T09:24:35.776Z,752.00
2019-01-20T09:25:36.428Z,756.00
2019-01-20T09:26:37.006Z,760.00
2019-01-20T09:27:37.669Z,764.00
2019-01-20T09:28:38.251Z,772.00
2019-01-20T09:29:38.910Z,780.00
2019-01-20T09:30:39.489Z,788.00
2019-01-20T09:31:40.151Z,796.00
2019-01-20T09:32:40.734Z,808.00
2019-01-20T09:33:43.343Z,816.00
2019-01-20T09:34:43.925Z,824.00
2019-01-20T09:35:44.588Z,828.00
2019-01-20T09:36:45.169Z,836.00
2019-01-20T09:37:46.854Z,840.00
2019-01-20T09:38:47.432Z,848.00
2019-01-20T09:39:50.146Z,856.00
2019-01-20T09:40:50.726Z,860.00
2019-01-20T09:41:52.409Z,872.00
2019-01-20T09:42:52.991Z,880.00
2019-01-20T09:43:55.708Z,888.00
2019-01-20T09:44:56.284Z,896.00
2019-01-20T09:45:56.942Z,904.00
2019-01-20T09:46:57.543Z,920.00
2019-01-20T09:47:58.184Z,924.00
2019-01-20T09:48:58.770Z,936.00
2019-01-20T09:50:00.450Z,948.00
2019-01-20T09:51:01.032Z,960.00
2019-01-20T09:52:08.654Z,968.00
2019-01-20T09:53:09.236Z,980.00
2019-01-20T09:54:09.824Z,988.00
2019-01-20T09:55:12.471Z,1000.00
2019-01-20T09:56:13.047Z,1012.00
2019-01-20T09:57:13.709Z,1020.00
2019-01-20T09:58:14.290Z,1032.00
2019-01-20T09:59:14.954Z,1036.00
2019-01-20T10:00:15.540Z,1044.00
2019-01-20T10:01:16.191Z,1052.00
2019-01-20T10:02:16.769Z,1060.00
2019-01-20T10:03:17.435Z,1064.00
2019-01-20T10:04:18.016Z,1072.00
2019-01-20T10:05:18.680Z,1080.00
2019-01-20T10:06:19.259Z,1088.00
2019-01-20T10:07:21.972Z,1084.00
2019-01-20T10:08:22.549Z,1100.00
2019-01-20T10:09:23.166Z,1104.00
2019-01-20T10:10:23.748Z,1116.00
2019-01-20T10:11:24.451Z,1120.00
2019-01-20T10:12:25.033Z,1128.00
2019-01-20T10:13:25.693Z,1132.00
2019-01-20T10:14:26.274Z,1140.00
2019-01-20T10:15:26.936Z,1144.00
2019-01-20T10:16:27.522Z,1144.00
2019-01-20T10:17:29.202Z,1144.00
2019-01-20T10:18:29.784Z,1148.00
2019-01-20T10:19:30.444Z,1152.00
2019-01-20T10:20:31.026Z,1156.00
2019-01-20T10:21:31.686Z,1160.00
2019-01-20T10:22:32.267Z,1160.00
2019-01-20T10:23:41.632Z,1164.00
2019-01-20T10:24:42.217Z,1168.00
2019-01-20T10:25:42.799Z,1168.00
2019-01-20T10:26:45.446Z,1168.00
2019-01-20T10:27:46.029Z,1168.00
2019-01-20T10:28:47.710Z,1172.00
2019-01-20T10:29:48.293Z,1172.00
2019-01-20T10:30:50.889Z,1176.00
2019-01-20T10:31:51.469Z,1176.00
2019-01-20T10:32:52.152Z,1176.00
2019-01-20T10:33:52.723Z,1180.00
2019-01-20T10:34:53.385Z,1188.00
2019-01-20T10:35:53.966Z,1192.00
2019-01-20T10:36:55.654Z,1192.00
2019-01-20T10:37:56.127Z,1196.00
2019-01-20T10:38:58.741Z,1196.00
2019-01-20T10:39:59.334Z,1200.00
2019-01-20T10:40:59.984Z,1200.00
2019-01-20T10:42:00.579Z,1208.00
2019-01-20T10:43:01.233Z,1204.00
2019-01-20T10:44:02.329Z,1204.00
2019-01-20T10:45:02.464Z,1208.00
2019-01-20T10:46:03.036Z,1212.00
2019-01-20T10:47:03.728Z,1208.00
2019-01-20T10:48:04.293Z,1208.00
2019-01-20T10:49:05.363Z,1212.00
2019-01-20T10:50:05.457Z,1220.00
2019-01-20T10:51:06.190Z,1220.00
2019-01-20T10:52:06.770Z,1216.00
2019-01-20T10:53:07.354Z,1220.00
2019-01-20T10:54:07.955Z,1224.00
2019-01-20T10:55:08.565Z,1228.00
2019-01-20T10:56:09.160Z,1224.00
2019-01-20T10:57:09.816Z,1228.00
2019-01-20T10:58:10.397Z,1236.00
2019-01-20T10:59:11.058Z,1236.00
2019-01-20T11:00:11.637Z,1240.00
2019-01-20T11:01:12.297Z,1240.00
2019-01-20T11:02:12.879Z,1244.00
2019-01-20T11:03:13.540Z,1260.00
2019-01-20T11:04:14.123Z,1344.00
2019-01-20T11:05:14.789Z,2428.00
2019-01-20T11:06:15.367Z,4176.00
2019-01-20T11:07:16.344Z,2808.00
2019-01-20T11:08:16.715Z,4976.00
2019-01-20T11:09:17.375Z,9488.00
2019-01-20T11:10:17.965Z,10436.00
2019-01-20T11:11:18.663Z,9388.00
2019-01-20T11:12:19.166Z,8220.00
2019-01-20T11:13:19.945Z,8748.00
2019-01-20T11:14:20.527Z,9432.00
2019-01-20T11:15:21.111Z,8168.00
2019-01-20T11:16:21.694Z,7064.00
2019-01-20T11:17:22.279Z,8268.00
2019-01-20T11:18:22.864Z,8492.00
2019-01-20T11:19:23.608Z,6460.00
2019-01-20T11:20:24.145Z,5184.00
2019-01-20T11:21:24.730Z,5512.00
2019-01-20T11:22:25.318Z,7436.00
2019-01-20T11:23:25.898Z,9708.00
2019-01-20T11:24:26.488Z,9684.00
2019-01-20T11:25:27.075Z,9300.00
2019-01-20T11:26:27.665Z,9456.00
2019-01-20T11:27:28.246Z,9936.00
2019-01-20T11:28:28.833Z,9952.00
2019-01-20T11:29:29.421Z,9080.00
2019-01-20T11:30:30.010Z,7528.00
2019-01-20T11:31:30.593Z,5740.00
2019-01-20T11:32:31.177Z,3604.00
2019-01-20T11:33:31.784Z,2344.00
2019-01-20T11:34:32.380Z,3724.00
2019-01-20T11:35:34.001Z,5224.00
2019-01-20T11:36:34.599Z,5976.00
2019-01-20T11:37:35.187Z,7324.00
2019-01-20T11:38:35.863Z,7484.00
2019-01-20T11:39:36.457Z,7968.00
2019-01-20T11:40:37.048Z,9076.00
2019-01-20T11:41:37.726Z,9200.00
2019-01-20T11:42:38.315Z,9072.00
2019-01-20T11:43:38.969Z,8304.00
2019-01-20T11:44:39.564Z,5928.00
2019-01-20T11:45:40.211Z,6068.00
2019-01-20T11:46:40.798Z,8188.00
2019-01-20T11:47:41.975Z,8724.00
2019-01-20T11:48:42.046Z,7944.00
2019-01-20T11:49:43.719Z,8328.00
2019-01-20T11:50:44.310Z,8792.00
2019-01-20T11:51:44.963Z,8804.00
2019-01-20T11:52:45.553Z,8076.00
2019-01-20T11:53:46.205Z,8088.00
2019-01-20T11:54:46.797Z,8880.00
2019-01-20T11:55:47.448Z,8436.00
2019-01-20T11:56:48.035Z,7772.00
2019-01-20T11:57:48.695Z,8132.00
2019-01-20T11:58:49.286Z,8100.00
2019-01-20T11:59:49.933Z,8052.00
2019-01-20T12:00:50.527Z,6116.00
2019-01-20T12:01:51.172Z,5272.00
2019-01-20T12:02:51.769Z,6172.00
2019-01-20T12:03:52.422Z,6476.00
2019-01-20T12:04:53.008Z,7160.00
2019-01-20T12:05:53.667Z,5764.00
2019-01-20T12:06:54.249Z,4264.00
2019-01-20T12:07:55.928Z,4124.00
2019-01-20T12:08:56.516Z,3764.00
2019-01-20T12:09:57.111Z,3616.00
2019-01-20T12:10:57.698Z,4208.00
2019-01-20T12:11:58.286Z,5664.00
2019-01-20T12:12:58.887Z,6704.00
2019-01-20T12:13:59.487Z,7444.00
2019-01-20T12:15:00.145Z,8040.00
2019-01-20T12:16:00.695Z,7756.00
2019-01-20T12:17:01.278Z,7268.00
2019-01-20T12:18:01.861Z,6820.00
2019-01-20T12:19:02.452Z,5428.00
2019-01-20T12:20:03.038Z,3796.00
2019-01-20T12:21:03.632Z,2556.00
2019-01-20T12:22:04.223Z,2716.00
2019-01-20T12:23:04.821Z,2832.00
2019-01-20T12:24:05.412Z,1556.00
2019-01-20T12:25:06.080Z,1456.00
2019-01-20T12:26:06.676Z,1336.00
2019-01-20T12:27:07.272Z,1236.00
2019-01-20T12:28:08.966Z,1292.00
2019-01-20T12:29:09.582Z,1520.00
2019-01-20T12:30:10.173Z,1360.00
2019-01-20T12:31:10.767Z,1336.00
2019-01-20T12:32:11.358Z,1384.00
2019-01-20T12:33:11.956Z,1300.00
2019-01-20T12:34:12.541Z,1156.00
2019-01-20T12:35:13.134Z,1108.00
2019-01-20T12:36:13.735Z,1100.00
2019-01-20T12:37:14.317Z,1136.00
2019-01-20T12:38:14.906Z,1152.00
2019-01-20T12:39:15.502Z,1672.00
2019-01-20T12:40:16.093Z,3964.00
2019-01-20T12:41:16.683Z,5164.00
2019-01-20T12:42:17.275Z,3184.00
2019-01-20T12:43:18.901Z,1120.00
2019-01-20T12:44:19.491Z,1564.00
2019-01-20T12:45:20.107Z,1552.00
2019-01-20T12:46:20.671Z,1184.00
2019-01-20T12:47:21.266Z,2172.00
2019-01-20T12:48:21.850Z,3040.00
2019-01-20T12:49:22.446Z,3484.00
2019-01-20T12:50:23.036Z,3308.00
2019-01-20T12:51:28.474Z,3440.00
2019-01-20T12:52:24.237Z,4060.00
2019-01-20T12:53:24.831Z,4324.00
2019-01-20T12:54:25.437Z,3524.00
2019-01-20T12:55:26.007Z,2784.00
2019-01-20T12:56:26.595Z,1940.00
2019-01-20T12:57:27.181Z,1744.00
2019-01-20T12:58:27.798Z,1648.00
2019-01-20T12:59:28.371Z,1472.00
2019-01-20T13:00:28.966Z,2436.00
2019-01-20T13:01:29.560Z,3236.00
2019-01-20T13:02:30.143Z,3424.00
2019-01-20T13:03:30.736Z,3528.00
2019-01-20T13:04:31.322Z,3848.00
2019-01-20T13:05:31.916Z,4100.00
2019-01-20T13:06:32.538Z,2912.00
2019-01-20T13:07:33.126Z,2256.00
2019-01-20T13:08:33.779Z,1964.00
2019-01-20T13:09:34.373Z,1852.00
2019-01-20T13:10:34.958Z,1872.00
2019-01-20T13:11:35.556Z,1444.00
2019-01-20T13:12:36.145Z,2128.00
2019-01-20T13:13:36.733Z,3256.00
2019-01-20T13:14:39.162Z,3688.00
2019-01-20T13:15:37.911Z,3888.00
2019-01-20T13:16:38.503Z,3808.00
2019-01-20T13:17:39.101Z,3320.00
2019-01-20T13:18:39.686Z,3188.00
2019-01-20T13:19:40.280Z,3364.00
2019-01-20T13:20:40.895Z,3248.00
2019-01-20T13:21:41.482Z,3080.00
2019-01-20T13:22:42.075Z,2928.00
2019-01-20T13:23:42.666Z,2792.00
2019-01-20T13:24:43.258Z,2280.00
2019-01-20T13:25:43.888Z,1776.00
2019-01-20T13:26:44.444Z,2156.00
2019-01-20T13:27:45.050Z,2300.00
2019-01-20T13:28:45.627Z,1976.00
2019-01-20T13:29:46.224Z,1952.00
2019-01-20T13:30:46.927Z,2112.00
2019-01-20T13:31:47.404Z,2248.00
2019-01-20T13:32:47.990Z,2292.00
2019-01-20T13:33:48.585Z,2288.00
2019-01-20T13:34:49.180Z,2304.00
2019-01-20T13:35:49.774Z,2260.00
2019-01-20T13:36:50.365Z,2212.00
2019-01-20T13:37:51.021Z,2196.00
2019-01-20T13:38:51.573Z,2196.00